Time;durP1;ratioP1;P1;durP2;ratioP2;P2;SDS_P1;SDS_P2;PMS_P1;PMS_P2;Temp;Humidity;BMP_temperature;BMP_pressure;BME280_temperature;BME280_humidity;BME280_pressure;Samples;Min_cycle;Max_cycle;Signal;HPM_P1;HPM_P2
2021/08/16 00:00:10;;;;;;;7.22;4.22;;;21.50;78.60;;;;;;5095445;28;20016;-74
2021/08/16 00:02:36;;;;;;;7.68;4.50;;;21.50;78.80;;;;;;5076533;28;20028;-75
2021/08/16 00:05:03;;;;;;;10.88;4.70;;;21.40;78.60;;;;;;5095222;28;20031;-74
2021/08/16 00:07:29;;;;;;;8.23;4.60;;;21.40;78.60;;;;;;5095276;28;20029;-73
2021/08/16 00:09:55;;;;;;;8.85;5.15;;;21.40;78.80;;;;;;5077203;28;20024;-74
2021/08/16 00:12:21;;;;;;;10.52;4.43;;;21.30;79.00;;;;;;5095196;28;20024;-74
2021/08/16 00:14:47;;;;;;;6.68;4.80;;;21.40;79.40;;;;;;5095088;28;20101;-74
2021/08/16 00:17:13;;;;;;;10.45;5.00;;;21.30;79.30;;;;;;5095115;28;20054;-73
2021/08/16 00:19:39;;;;;;;12.00;5.78;;;21.30;79.30;;;;;;5095054;28;20028;-73
2021/08/16 00:22:05;;;;;;;14.38;6.05;;;21.30;79.10;;;;;;5094907;28;20023;-74
2021/08/16 00:24:31;;;;;;;8.77;5.10;;;21.30;78.80;;;;;;5076749;28;20035;-74
2021/08/16 00:27:01;;;;;;;15.68;6.22;;;21.30;79.20;;;;;;5094902;28;20065;-74
2021/08/16 00:29:26;;;;;;;7.55;5.03;;;21.20;79.10;;;;;;5094875;28;20016;-74
2021/08/16 00:31:52;;;;;;;7.00;4.63;;;21.20;79.30;;;;;;5094781;28;20425;-75
2021/08/16 00:34:18;;;;;;;5.38;3.72;;;21.20;79.50;;;;;;5094736;28;20532;-75
2021/08/16 00:36:44;;;;;;;9.65;4.82;;;21.20;79.70;;;;;;5094693;28;20086;-74
2021/08/16 00:39:10;;;;;;;11.60;5.10;;;21.20;79.70;;;;;;5094665;28;20077;-74
2021/08/16 00:41:38;;;;;;;7.88;4.68;;;21.20;79.70;;;;;;5094654;28;20107;-74
2021/08/16 00:44:07;;;;;;;6.55;3.72;;;21.20;79.70;;;;;;5094491;28;20086;-74
2021/08/16 00:46:35;;;;;;;7.10;4.25;;;21.20;79.50;;;;;;5094529;28;20028;-74
2021/08/16 00:49:01;;;;;;;7.78;4.75;;;21.20;79.70;;;;;;5076231;28;20027;-74
2021/08/16 00:51:30;;;;;;;6.82;3.95;;;21.20;79.80;;;;;;5094464;28;20020;-74
2021/08/16 00:53:55;;;;;;;6.60;3.72;;;21.20;79.70;;;;;;5076145;28;20054;-74
2021/08/16 00:56:26;;;;;;;5.78;3.78;;;21.20;79.90;;;;;;5094187;28;20040;-74
2021/08/16 00:58:53;;;;;;;5.20;3.15;;;21.20;80.00;;;;;;5094335;28;20491;-73
2021/08/16 01:01:19;;;;;;;6.57;3.70;;;21.20;80.10;;;;;;5094269;28;20094;-74
2021/08/16 01:03:45;;;;;;;12.73;4.93;;;21.20;80.20;;;;;;5094430;28;20134;-73
2021/08/16 01:06:11;;;;;;;9.02;3.85;;;21.20;80.10;;;;;;5075954;28;20473;-74
2021/08/16 01:08:37;;;;;;;7.03;3.90;;;21.20;80.00;;;;;;5094087;28;20118;-74
2021/08/16 01:11:03;;;;;;;5.90;3.63;;;21.20;80.20;;;;;;5094072;28;20024;-74
2021/08/16 01:13:29;;;;;;;7.63;4.43;;;21.20;80.30;;;;;;5092953;28;20497;-73
2021/08/16 01:16:05;;;;;;;8.10;5.07;;;21.20;80.30;;;;;;5093966;28;20170;-74
2021/08/16 01:18:35;;;;;;;9.05;4.50;;;21.20;79.40;;;;;;5093949;28;20028;-74
2021/08/16 01:21:03;;;;;;;11.13;4.82;;;21.20;80.10;;;;;;5094025;28;20035;-74
2021/08/16 01:23:29;;;;;;;7.03;4.45;;;21.20;80.30;;;;;;5093829;28;20469;-75
2021/08/16 01:25:55;;;;;;;7.20;4.45;;;21.20;80.40;;;;;;5093667;28;20035;-73
2021/08/16 01:28:22;;;;;;;10.70;4.32;;;21.30;80.60;;;;;;5093638;28;20503;-72
2021/08/16 01:30:57;;;;;;;7.00;3.90;;;21.30;80.50;;;;;;5093673;28;20039;-75
2021/08/16 01:33:24;;;;;;;7.50;4.15;;;21.30;79.80;;;;;;5093637;28;20024;-72
2021/08/16 01:35:50;;;;;;;9.00;4.65;;;21.30;80.30;;;;;;5093606;28;20020;-72
2021/08/16 01:38:27;;;;;;;7.75;4.45;;;21.30;80.30;;;;;;5093544;28;20032;-72
2021/08/16 01:40:53;;;;;;;5.97;3.20;;;21.30;80.60;;;;;;5075681;28;20359;-72
2021/08/16 01:43:19;;;;;;;7.28;4.13;;;21.30;80.50;;;;;;5093478;28;20027;-72
2021/08/16 01:45:45;;;;;;;5.68;3.28;;;21.30;80.60;;;;;;5093468;28;20016;-72
2021/08/16 01:48:14;;;;;;;8.32;3.47;;;21.30;80.70;;;;;;5093525;28;20024;-72
2021/08/16 01:50:41;;;;;;;4.85;3.17;;;21.30;80.40;;;;;;5075329;28;20428;-75
2021/08/16 01:53:07;;;;;;;4.80;2.97;;;21.30;80.50;;;;;;5075189;28;20078;-72
2021/08/16 01:55:33;;;;;;;7.95;2.85;;;21.30;80.60;;;;;;5093201;28;20548;-75
2021/08/16 01:57:59;;;;;;;5.82;3.47;;;21.40;80.70;;;;;;5093374;28;20035;-72
2021/08/16 02:00:25;;;;;;;6.05;3.40;;;21.40;80.90;;;;;;5075116;28;20024;-72
2021/08/16 02:02:51;;;;;;;7.05;4.65;;;21.40;80.80;;;;;;5093249;28;20036;-73
2021/08/16 02:05:16;;;;;;;7.10;4.47;;;21.40;80.70;;;;;;5093053;28;20028;-72
2021/08/16 02:07:42;;;;;;;11.48;4.88;;;21.30;80.50;;;;;;5093183;28;20076;-73
2021/08/16 02:10:09;;;;;;;7.70;3.85;;;21.40;80.40;;;;;;5093070;28;20095;-73
2021/08/16 02:12:35;;;;;;;8.25;4.80;;;21.30;80.30;;;;;;5093092;28;20520;-73
2021/08/16 02:15:01;;;;;;;6.53;4.22;;;21.30;80.50;;;;;;5093034;28;20103;-73
2021/08/16 02:17:26;;;;;;;12.02;5.15;;;21.30;80.50;;;;;;5093019;28;20032;-72
2021/08/16 02:19:53;;;;;;;11.38;5.97;;;21.30;80.40;;;;;;5092965;28;20431;-73
2021/08/16 02:22:19;;;;;;;9.30;5.07;;;21.30;80.10;;;;;;5093013;28;20024;-73
2021/08/16 02:24:45;;;;;;;7.10;4.20;;;21.30;79.90;;;;;;5076134;28;20462;-74
2021/08/16 02:27:11;;;;;;;8.48;4.20;;;21.20;80.10;;;;;;5097176;28;20057;-73
2021/08/16 02:29:37;;;;;;;7.30;5.07;;;21.30;80.30;;;;;;5097164;28;20020;-74
2021/08/16 02:32:03;;;;;;;10.88;5.90;;;21.30;80.40;;;;;;5097087;28;20052;-72
2021/08/16 02:34:29;;;;;;;13.55;5.43;;;21.20;80.10;;;;;;5078913;28;20051;-73
2021/08/16 02:36:55;;;;;;;22.67;6.45;;;21.20;79.80;;;;;;5096952;28;20140;-72
2021/08/16 02:39:21;;;;;;;10.45;6.78;;;21.10;80.40;;;;;;5096926;28;20051;-72
2021/08/16 02:41:47;;;;;;;9.80;6.40;;;21.10;79.60;;;;;;5096957;28;20097;-72
2021/08/16 02:44:12;;;;;;;6.20;4.47;;;21.00;79.60;;;;;;5096762;28;20044;-72
2021/08/16 02:46:38;;;;;;;11.25;5.57;;;21.00;80.10;;;;;;5096878;28;20116;-73
2021/08/16 02:49:04;;;;;;;11.20;5.80;;;21.00;80.30;;;;;;5096821;28;20491;-73
2021/08/16 02:51:30;;;;;;;7.22;5.38;;;21.00;80.40;;;;;;5096745;28;20070;-73
2021/08/16 02:53:56;;;;;;;10.73;5.80;;;21.00;80.50;;;;;;5096669;28;20028;-73
2021/08/16 02:56:22;;;;;;;6.63;5.30;;;21.00;80.50;;;;;;5096440;28;20036;-73
2021/08/16 02:58:48;;;;;;;10.13;6.55;;;21.00;80.60;;;;;;5096627;28;20028;-73
2021/08/16 03:01:14;;;;;;;9.10;5.90;;;21.00;80.70;;;;;;5096466;28;20028;-73
2021/08/16 03:03:40;;;;;;;11.48;7.05;;;21.00;80.70;;;;;;5096545;28;20020;-74
2021/08/16 03:06:06;;;;;;;10.73;7.97;;;21.00;80.70;;;;;;5096325;28;20081;-73
2021/08/16 03:08:36;;;;;;;12.05;7.68;;;21.00;80.70;;;;;;5096329;28;20027;-74
2021/08/16 03:11:06;;;;;;;15.02;8.90;;;21.00;80.20;;;;;;5078172;28;20020;-73
2021/08/16 03:13:33;;;;;;;19.85;8.75;;;21.00;80.20;;;;;;5096280;28;20020;-73
2021/08/16 03:15:59;;;;;;;13.93;8.80;;;21.00;80.50;;;;;;5078107;28;20059;-74
2021/08/16 03:18:25;;;;;;;18.45;8.23;;;21.00;80.70;;;;;;5096157;28;20024;-73
2021/08/16 03:20:52;;;;;;;14.75;8.23;;;21.00;80.90;;;;;;5096129;28;20028;-73
2021/08/16 03:23:19;;;;;;;18.05;10.02;;;21.00;80.90;;;;;;5077924;28;20032;-73
2021/08/16 03:25:45;;;;;;;19.05;11.93;;;21.00;80.90;;;;;;5096010;28;20024;-73
2021/08/16 03:28:10;;;;;;;14.98;9.13;;;21.00;80.80;;;;;;5095984;28;20111;-74
2021/08/16 03:30:36;;;;;;;14.40;8.68;;;21.00;80.80;;;;;;5095891;28;20024;-74
2021/08/16 03:33:02;;;;;;;14.25;8.25;;;21.00;81.00;;;;;;5095846;28;20012;-73
2021/08/16 03:35:28;;;;;;;11.02;7.90;;;21.00;81.20;;;;;;5095475;28;20039;-73
2021/08/16 03:37:54;;;;;;;9.27;7.35;;;21.10;81.40;;;;;;5095001;28;20500;-73
2021/08/16 03:40:19;;;;;;;8.52;6.68;;;21.10;81.40;;;;;;5095790;28;20069;-74
2021/08/16 03:42:45;;;;;;;12.90;7.32;;;21.10;81.40;;;;;;5095783;28;20015;-74
2021/08/16 03:45:16;;;;;;;11.32;7.88;;;21.20;81.50;;;;;;5095630;28;20028;-73
2021/08/16 03:47:43;;;;;;;14.05;7.95;;;21.10;81.00;;;;;;5095685;28;20502;-73
2021/08/16 03:50:10;;;;;;;13.65;8.93;;;21.10;81.20;;;;;;5095598;28;20495;-73
2021/08/16 03:52:36;;;;;;;13.20;8.52;;;21.10;81.10;;;;;;5095418;28;20027;-74
2021/08/16 03:55:02;;;;;;;14.00;8.13;;;21.20;81.20;;;;;;5095333;28;20048;-74
2021/08/16 03:57:28;;;;;;;15.93;7.43;;;21.10;81.10;;;;;;5095394;28;20417;-74
2021/08/16 03:59:54;;;;;;;12.45;6.45;;;21.10;81.20;;;;;;5095423;28;20028;-74
2021/08/16 04:02:21;;;;;;;10.77;6.97;;;21.20;81.50;;;;;;5095307;28;20100;-75
2021/08/16 04:04:47;;;;;;;8.40;5.70;;;21.20;81.60;;;;;;5095162;28;20073;-74
2021/08/16 04:07:13;;;;;;;11.60;5.47;;;21.20;81.60;;;;;;5095063;28;20016;-73
2021/08/16 04:09:39;;;;;;;11.95;4.80;;;21.20;81.60;;;;;;5095069;28;20020;-73
2021/08/16 04:12:05;;;;;;;8.32;4.97;;;21.20;81.40;;;;;;5094997;28;20020;-72
2021/08/16 04:14:31;;;;;;;6.35;4.40;;;21.20;81.20;;;;;;5077044;28;20064;-74
2021/08/16 04:16:57;;;;;;;7.03;4.22;;;21.20;81.40;;;;;;5094849;28;20028;-73
2021/08/16 04:19:23;;;;;;;9.40;4.20;;;21.30;81.70;;;;;;5094893;28;20026;-74
2021/08/16 04:21:49;;;;;;;4.88;3.58;;;21.30;81.70;;;;;;5094822;28;20103;-74
2021/08/16 04:24:15;;;;;;;5.97;3.70;;;21.30;81.80;;;;;;5094809;28;20027;-74
2021/08/16 04:26:40;;;;;;;6.57;3.35;;;21.40;81.90;;;;;;5094785;28;20089;-73
2021/08/16 04:29:06;;;;;;;6.85;3.55;;;21.40;81.90;;;;;;5076443;28;20027;-74
2021/08/16 04:31:33;;;;;;;10.23;3.90;;;21.40;81.90;;;;;;5094721;28;20012;-74
2021/08/16 04:33:59;;;;;;;6.00;3.47;;;21.40;81.80;;;;;;5094572;28;20486;-73
2021/08/16 04:36:24;;;;;;;5.30;2.92;;;21.40;81.90;;;;;;5076543;28;20055;-74
2021/08/16 04:38:50;;;;;;;6.97;3.63;;;21.40;82.10;;;;;;5094544;28;20100;-73
2021/08/16 04:41:16;;;;;;;6.00;3.95;;;21.50;82.10;;;;;;5094475;28;20023;-74
2021/08/16 04:43:42;;;;;;;13.27;5.25;;;21.50;82.20;;;;;;5094568;28;20135;-73
2021/08/16 04:46:08;;;;;;;13.77;7.22;;;21.60;82.30;;;;;;5094402;28;20381;-74
2021/08/16 04:48:33;;;;;;;10.90;5.72;;;21.60;82.40;;;;;;5094104;28;20389;-74
2021/08/16 04:50:59;;;;;;;7.57;4.97;;;21.60;82.40;;;;;;5076179;28;20422;-73
2021/08/16 04:53:25;;;;;;;6.80;4.57;;;21.70;82.50;;;;;;5094272;28;20624;-74
2021/08/16 04:55:51;;;;;;;8.02;5.45;;;21.70;82.50;;;;;;5094037;28;20048;-73
2021/08/16 04:58:17;;;;;;;7.63;5.82;;;21.70;82.50;;;;;;5094162;28;20024;-74
2021/08/16 05:00:43;;;;;;;13.75;7.93;;;21.80;82.50;;;;;;5094161;28;20380;-73
2021/08/16 05:03:08;;;;;;;10.70;7.72;;;21.80;82.40;;;;;;5094157;28;20024;-73
2021/08/16 05:05:34;;;;;;;13.30;8.45;;;21.80;82.20;;;;;;5094171;28;20028;-73
2021/08/16 05:08:01;;;;;;;11.35;7.22;;;21.80;82.10;;;;;;5094155;28;20048;-75
2021/08/16 05:10:29;;;;;;;12.23;7.57;;;21.80;81.90;;;;;;5075903;28;20024;-74
2021/08/16 05:12:58;;;;;;;10.88;7.63;;;21.90;82.10;;;;;;5093900;28;20020;-74
2021/08/16 05:15:24;;;;;;;12.32;7.03;;;21.90;82.20;;;;;;5093795;28;20473;-73
2021/08/16 05:17:50;;;;;;;11.55;6.97;;;21.90;82.40;;;;;;5093826;28;20031;-75
2021/08/16 05:20:17;;;;;;;8.65;5.60;;;22.00;82.50;;;;;;5093853;28;20028;-73
2021/08/16 05:22:45;;;;;;;15.05;7.90;;;22.00;82.80;;;;;;5075633;28;20081;-74
2021/08/16 05:25:13;;;;;;;12.23;7.70;;;22.10;82.70;;;;;;5093732;28;20062;-73
2021/08/16 05:27:40;;;;;;;9.57;6.35;;;22.10;82.40;;;;;;5075487;28;20477;-73
2021/08/16 05:30:07;;;;;;;9.95;5.97;;;22.20;82.50;;;;;;5093685;28;20016;-74
2021/08/16 05:32:32;;;;;;;11.38;6.95;;;22.20;82.60;;;;;;5093518;28;20026;-74
2021/08/16 05:34:58;;;;;;;12.45;7.55;;;22.30;83.00;;;;;;5093654;28;20103;-73
2021/08/16 05:37:24;;;;;;;15.15;7.85;;;22.30;83.00;;;;;;5093547;28;20057;-75
2021/08/16 05:39:50;;;;;;;34.47;11.35;;;22.40;82.90;;;;;;5093426;28;20051;-74
2021/08/16 05:42:16;;;;;;;30.50;12.88;;;22.40;82.50;;;;;;5075181;28;20028;-73
2021/08/16 05:44:42;;;;;;;40.47;11.70;;;22.40;82.00;;;;;;5093402;28;20031;-73
2021/08/16 05:47:08;;;;;;;34.45;11.15;;;22.40;81.80;;;;;;5075378;28;20047;-74
2021/08/16 05:49:34;;;;;;;15.00;8.13;;;22.50;82.00;;;;;;5093325;28;20047;-74
2021/08/16 05:52:00;;;;;;;14.00;8.20;;;22.50;82.00;;;;;;5075259;28;20054;-74
2021/08/16 05:54:26;;;;;;;21.38;11.40;;;22.50;81.70;;;;;;5093082;28;20052;-74
2021/08/16 05:56:52;;;;;;;29.00;12.52;;;22.50;81.80;;;;;;5075232;28;20473;-74
2021/08/16 05:59:18;;;;;;;23.45;12.98;;;22.60;81.90;;;;;;5092483;28;20035;-74
2021/08/16 06:01:43;;;;;;;29.75;13.68;;;22.60;81.90;;;;;;5075190;28;20124;-74
2021/08/16 06:04:09;;;;;;;25.17;12.77;;;22.60;82.80;;;;;;5074784;28;20440;-73
2021/08/16 06:06:35;;;;;;;22.45;12.13;;;22.60;81.80;;;;;;5093106;28;20032;-73
2021/08/16 06:09:03;;;;;;;20.92;10.38;;;22.70;81.80;;;;;;5074883;28;20050;-75
2021/08/16 06:11:29;;;;;;;23.63;11.35;;;22.70;81.80;;;;;;5093099;28;20081;-74
2021/08/16 06:13:55;;;;;;;21.80;10.75;;;22.80;82.10;;;;;;5092960;28;20474;-74
2021/08/16 06:16:22;;;;;;;17.52;10.38;;;22.80;81.80;;;;;;5093023;28;20420;-73
2021/08/16 06:18:48;;;;;;;18.75;10.35;;;22.90;82.20;;;;;;5074961;28;20030;-75
2021/08/16 06:21:14;;;;;;;25.15;12.25;;;23.00;82.70;;;;;;5093009;28;20089;-73
2021/08/16 06:23:40;;;;;;;21.25;11.52;;;23.00;82.50;;;;;;5092880;28;20028;-74
2021/08/16 06:26:07;;;;;;;21.60;10.70;;;23.10;81.70;;;;;;5092881;28;20048;-74
2021/08/16 06:28:33;;;;;;;24.05;10.00;;;23.10;82.20;;;;;;5092906;28;20027;-74
2021/08/16 06:30:59;;;;;;;17.85;9.40;;;23.20;81.80;;;;;;5092791;28;20396;-74
2021/08/16 06:33:25;;;;;;;18.98;10.70;;;23.20;81.80;;;;;;5092885;28;20358;-73
2021/08/16 06:35:53;;;;;;;21.25;10.40;;;23.30;81.90;;;;;;5074716;28;20387;-74
2021/08/16 06:38:22;;;;;;;16.75;10.68;;;23.30;81.60;;;;;;5092759;28;20024;-73
2021/08/16 06:40:50;;;;;;;24.20;10.30;;;23.40;81.30;;;;;;5074470;28;20028;-74
2021/08/16 06:43:17;;;;;;;18.10;10.18;;;23.40;80.90;;;;;;5092601;28;20051;-74
2021/08/16 06:45:42;;;;;;;16.85;8.73;;;23.50;80.40;;;;;;5092629;28;20016;-74
2021/08/16 06:48:08;;;;;;;14.82;7.13;;;23.50;80.50;;;;;;5092659;28;20448;-74
2021/08/16 06:50:34;;;;;;;14.25;8.52;;;23.60;81.10;;;;;;5092608;28;20023;-73
2021/08/16 06:53:00;;;;;;;15.13;9.25;;;23.70;81.10;;;;;;5092654;28;20024;-74
2021/08/16 06:55:26;;;;;;;18.88;9.25;;;23.70;80.90;;;;;;5092413;28;20052;-73
2021/08/16 06:57:52;;;;;;;11.82;7.25;;;23.80;80.40;;;;;;5074440;28;20038;-73
2021/08/16 07:00:18;;;;;;;12.00;6.13;;;23.90;80.30;;;;;;5092538;28;20111;-74
2021/08/16 07:02:43;;;;;;;11.57;7.22;;;23.90;80.50;;;;;;5092319;28;20108;-74
2021/08/16 07:05:10;;;;;;;15.55;5.75;;;24.00;79.20;;;;;;5092595;28;20402;-74
2021/08/16 07:07:36;;;;;;;12.15;5.10;;;24.00;78.10;;;;;;5092318;28;20024;-74
2021/08/16 07:10:03;;;;;;;13.00;5.00;;;24.10;78.50;;;;;;5092571;28;20017;-74
2021/08/16 07:12:28;;;;;;;9.82;4.65;;;24.10;77.50;;;;;;5078002;28;20020;-74
2021/08/16 07:14:55;;;;;;;10.70;5.50;;;24.10;76.80;;;;;;5077987;28;20039;-74
2021/08/16 07:17:20;;;;;;;7.05;3.75;;;24.10;76.80;;;;;;5096217;28;20239;-74
2021/08/16 07:19:46;;;;;;;7.72;5.20;;;24.20;77.80;;;;;;5096103;28;20477;-74
2021/08/16 07:22:12;;;;;;;8.63;5.25;;;24.20;76.70;;;;;;5096132;28;20489;-74
2021/08/16 07:24:38;;;;;;;10.23;5.10;;;24.30;75.80;;;;;;5095898;28;20036;-74
2021/08/16 07:27:04;;;;;;;7.97;4.60;;;24.30;73.70;;;;;;5096098;28;20020;-74
2021/08/16 07:29:30;;;;;;;8.30;4.38;;;24.30;75.00;;;;;;5077811;28;20020;-74
2021/08/16 07:31:56;;;;;;;6.13;4.10;;;24.40;75.60;;;;;;5095948;28;20513;-74
2021/08/16 07:34:22;;;;;;;5.30;4.35;;;24.50;76.10;;;;;;5095884;28;20032;-74
2021/08/16 07:36:50;;;;;;;7.57;4.47;;;24.60;76.50;;;;;;5095701;28;20035;-74
2021/08/16 07:39:16;;;;;;;7.53;4.38;;;24.70;75.50;;;;;;5095771;28;20028;-74
2021/08/16 07:41:42;;;;;;;6.78;4.13;;;24.70;75.40;;;;;;5095687;28;20020;-74
2021/08/16 07:44:08;;;;;;;5.10;4.00;;;24.90;75.80;;;;;;5095654;28;20023;-74
2021/08/16 07:46:34;;;;;;;6.45;3.53;;;25.00;75.60;;;;;;5077538;28;20031;-74
2021/08/16 07:49:00;;;;;;;6.10;3.67;;;25.20;75.60;;;;;;5095553;28;20016;-74
2021/08/16 07:51:26;;;;;;;6.88;4.80;;;25.30;75.10;;;;;;5095542;28;20028;-74
2021/08/16 07:53:51;;;;;;;7.22;4.20;;;25.40;75.00;;;;;;5095674;28;20024;-74
2021/08/16 07:56:17;;;;;;;7.28;4.43;;;25.50;75.10;;;;;;5095284;28;20558;-74
2021/08/16 07:58:43;;;;;;;6.07;3.63;;;25.60;72.40;;;;;;5095324;28;20095;-75
2021/08/16 08:01:09;;;;;;;10.82;4.47;;;25.70;73.20;;;;;;5077255;28;20036;-74
2021/08/16 08:03:34;;;;;;;8.65;4.07;;;25.80;71.70;;;;;;5095278;28;20042;-75
2021/08/16 08:06:00;;;;;;;9.27;3.83;;;25.80;70.50;;;;;;5095154;28;20107;-76
2021/08/16 08:08:26;;;;;;;8.75;4.25;;;25.90;71.70;;;;;;5077070;28;20424;-75
2021/08/16 08:10:52;;;;;;;6.53;3.97;;;25.90;70.30;;;;;;5076967;28;20028;-74
2021/08/16 08:13:17;;;;;;;10.95;3.97;;;26.00;70.60;;;;;;5095037;28;20028;-75
2021/08/16 08:15:43;;;;;;;6.70;4.63;;;26.00;71.00;;;;;;5076730;28;20024;-75
2021/08/16 08:18:10;;;;;;;6.85;3.95;;;26.10;71.10;;;;;;5094881;28;20028;-75
2021/08/16 08:20:37;;;;;;;10.00;4.13;;;26.10;68.80;;;;;;5095108;28;20458;-75
2021/08/16 08:23:03;;;;;;;8.75;4.30;;;26.20;68.60;;;;;;5094327;28;20020;-75
2021/08/16 08:25:29;;;;;;;6.90;4.20;;;26.30;68.50;;;;;;5094837;28;20495;-75
2021/08/16 08:27:55;;;;;;;8.15;4.68;;;26.30;68.10;;;;;;5076713;28;20025;-75
2021/08/16 08:30:22;;;;;;;6.68;3.78;;;26.30;68.40;;;;;;5094889;28;20031;-75
2021/08/16 08:32:50;;;;;;;11.68;2.97;;;26.30;69.50;;;;;;5094755;28;20073;-75
2021/08/16 08:35:17;;;;;;;5.63;3.20;;;26.30;68.20;;;;;;5076664;28;20016;-75
2021/08/16 08:37:43;;;;;;;4.70;3.42;;;26.40;69.40;;;;;;5094700;28;20027;-75
2021/08/16 08:40:09;;;;;;;7.95;3.50;;;26.40;68.50;;;;;;5094492;28;20385;-75
2021/08/16 08:42:37;;;;;;;6.75;3.22;;;26.40;68.00;;;;;;5094340;28;20016;-75
2021/08/16 08:45:04;;;;;;;6.53;3.05;;;26.50;67.80;;;;;;5094435;28;20020;-75
2021/08/16 08:47:32;;;;;;;5.60;3.67;;;26.50;67.60;;;;;;5094414;28;20016;-75
2021/08/16 08:49:58;;;;;;;7.68;3.17;;;26.60;68.40;;;;;;5094794;28;20020;-75
2021/08/16 08:52:24;;;;;;;6.85;3.63;;;26.60;67.30;;;;;;5094260;28;20069;-75
2021/08/16 08:54:50;;;;;;;7.20;3.63;;;26.70;67.00;;;;;;5093958;28;20052;-75
2021/08/16 08:57:19;;;;;;;15.75;4.18;;;26.80;66.80;;;;;;5094317;28;20029;-75
2021/08/16 08:59:45;;;;;;;8.98;3.75;;;26.80;65.50;;;;;;5094389;28;20031;-75
2021/08/16 09:02:14;;;;;;;6.28;3.47;;;26.80;65.90;;;;;;5094343;28;20389;-75
2021/08/16 09:04:51;;;;;;;9.15;3.35;;;26.80;65.00;;;;;;5094133;28;20390;-75
2021/08/16 09:07:17;;;;;;;9.15;3.38;;;26.80;64.50;;;;;;5094094;28;20046;-75
2021/08/16 09:09:54;;;;;;;6.13;3.70;;;26.90;65.80;;;;;;5094719;28;20067;-75
2021/08/16 09:12:33;;;;;;;10.65;4.50;;;27.00;65.00;;;;;;5093927;28;20058;-75
2021/08/16 09:15:00;;;;;;;9.85;4.10;;;27.00;65.10;;;;;;5075658;28;20059;-74
2021/08/16 09:17:30;;;;;;;12.88;4.55;;;27.10;63.90;;;;;;5093939;28;20024;-75
2021/08/16 09:19:56;;;;;;;8.45;3.28;;;27.20;63.40;;;;;;5075367;28;20032;-75
2021/08/16 09:22:34;;;;;;;15.57;3.97;;;27.20;63.10;;;;;;5093441;28;20057;-75
2021/08/16 09:25:09;;;;;;;8.02;3.97;;;27.30;62.80;;;;;;5093468;28;20405;-75
2021/08/16 09:27:48;;;;;;;7.75;3.35;;;27.30;62.00;;;;;;5093678;28;20016;-75
2021/08/16 09:30:15;;;;;;;8.88;3.63;;;27.30;61.40;;;;;;5093744;28;20046;-75
2021/08/16 09:32:43;;;;;;;9.02;3.58;;;27.30;61.60;;;;;;5075507;28;20039;-75
2021/08/16 09:35:11;;;;;;;12.23;3.63;;;27.30;60.70;;;;;;5074582;28;20024;-74
2021/08/16 09:37:38;;;;;;;7.40;3.53;;;27.30;61.70;;;;;;5075324;28;20045;-75
2021/08/16 09:40:14;;;;;;;9.15;3.67;;;27.20;61.20;;;;;;5093573;28;20024;-74
2021/08/16 09:42:50;;;;;;;14.32;4.53;;;27.20;60.90;;;;;;5093498;28;20028;-75
2021/08/16 09:45:33;;;;;;;8.10;3.53;;;27.20;60.70;;;;;;5093384;28;20028;-74
2021/08/16 09:48:01;;;;;;;11.23;4.00;;;27.20;60.60;;;;;;5075206;28;20593;-74
2021/08/16 09:50:45;;;;;;;8.50;3.70;;;27.20;62.70;;;;;;5075067;28;20787;-74
2021/08/16 09:53:24;;;;;;;9.18;3.90;;;27.30;62.90;;;;;;5093217;28;20153;-74
2021/08/16 09:56:02;;;;;;;7.55;4.35;;;27.40;63.50;;;;;;5093032;28;20165;-75
2021/08/16 09:58:29;;;;;;;6.00;3.60;;;27.50;62.60;;;;;;5093070;28;20107;-74
2021/08/16 10:00:56;;;;;;;6.32;3.42;;;27.60;63.10;;;;;;5093188;28;20416;-74
2021/08/16 10:03:22;;;;;;;7.03;2.75;;;27.70;60.50;;;;;;5093188;28;20051;-74
2021/08/16 10:05:50;;;;;;;6.47;2.97;;;27.80;60.90;;;;;;5093160;28;20016;-75
2021/08/16 10:08:24;;;;;;;5.53;3.03;;;27.90;61.60;;;;;;5092904;28;20031;-75
2021/08/16 10:10:53;;;;;;;7.03;2.95;;;28.00;60.00;;;;;;5093216;28;20228;-76
2021/08/16 10:13:23;;;;;;;5.38;3.00;;;28.10;59.80;;;;;;5093168;28;20073;-74
2021/08/16 10:15:57;;;;;;;5.60;3.00;;;28.20;60.10;;;;;;5074944;28;20119;-75
2021/08/16 10:18:32;;;;;;;6.00;2.90;;;28.30;59.70;;;;;;5093064;28;20026;-74
2021/08/16 10:20:58;;;;;;;13.32;3.92;;;28.40;60.30;;;;;;5092942;28;20020;-74
2021/08/16 10:23:25;;;;;;;4.28;2.50;;;28.50;59.60;;;;;;5074954;28;20059;-76
2021/08/16 10:25:54;;;;;;;8.25;3.45;;;28.70;60.60;;;;;;5092832;28;20036;-75
2021/08/16 10:28:30;;;;;;;12.82;3.42;;;28.80;57.40;;;;;;5074828;28;20111;-75
2021/08/16 10:30:57;;;;;;;8.30;3.88;;;28.90;57.70;;;;;;5074766;28;20374;-74
2021/08/16 10:33:24;;;;;;;11.02;3.92;;;29.00;57.30;;;;;;5092897;28;20026;-75
2021/08/16 10:35:51;;;;;;;7.72;3.65;;;29.10;57.90;;;;;;5092850;28;20052;-74
2021/08/16 10:38:18;;;;;;;4.03;3.50;;;29.30;58.30;;;;;;5074728;28;20063;-75
2021/08/16 10:40:58;;;;;;;5.93;3.92;;;29.40;57.50;;;;;;5093009;28;20028;-74
2021/08/16 10:43:33;;;;;;;10.85;4.70;;;29.50;56.10;;;;;;5092947;28;20024;-74
2021/08/16 10:46:00;;;;;;;7.97;4.85;;;29.60;55.40;;;;;;5094476;28;20027;-75
2021/08/16 10:48:34;;;;;;;7.00;3.95;;;29.70;57.80;;;;;;5096905;28;20492;-74
2021/08/16 10:51:07;;;;;;;11.98;4.82;;;29.70;56.20;;;;;;5096924;28;20514;-74
2021/08/16 10:53:45;;;;;;;9.35;4.70;;;29.80;55.20;;;;;;5078649;28;20519;-77
2021/08/16 10:56:19;;;;;;;8.00;4.85;;;29.90;54.70;;;;;;5057560;28;20056;-75
2021/08/16 10:58:46;;;;;;;7.82;5.45;;;29.90;55.30;;;;;;5056458;28;20099;-76
2021/08/16 11:01:35;;;;;;;11.00;5.00;;;29.90;54.30;;;;;;5055043;28;20087;-76
2021/08/16 11:04:06;;;;;;;8.40;5.60;;;29.90;55.00;;;;;;5054857;28;20032;-76
2021/08/16 11:06:32;;;;;;;8.27;4.97;;;29.80;54.50;;;;;;5056021;28;20492;-75
2021/08/16 11:08:59;;;;;;;7.60;4.68;;;29.80;54.90;;;;;;5056095;28;20463;-75
2021/08/16 11:11:26;;;;;;;11.35;5.20;;;29.80;57.10;;;;;;5055993;28;20097;-76
2021/08/16 11:14:12;;;;;;;13.82;6.68;;;29.80;56.00;;;;;;5054688;28;20074;-76
2021/08/16 11:16:49;;;;;;;9.63;5.70;;;29.80;55.80;;;;;;5055743;28;20075;-75
2021/08/16 11:19:15;;;;;;;12.60;5.25;;;29.70;56.20;;;;;;5055880;28;20025;-76
2021/08/16 11:21:51;;;;;;;11.27;5.22;;;29.70;56.80;;;;;;5055955;28;20413;-75
2021/08/16 11:24:25;;;;;;;9.98;4.82;;;29.70;56.50;;;;;;5055852;28;20025;-74
2021/08/16 11:26:51;;;;;;;9.43;4.65;;;29.60;56.70;;;;;;5055879;28;20056;-76
2021/08/16 11:29:24;;;;;;;14.63;4.57;;;29.60;58.00;;;;;;5055806;28;20053;-75
2021/08/16 11:31:52;;;;;;;7.10;4.63;;;29.70;58.60;;;;;;5055785;28;20143;-74
2021/08/16 11:34:18;;;;;;;8.45;4.82;;;29.70;58.30;;;;;;5055567;28;20409;-75
2021/08/16 11:36:44;;;;;;;7.90;5.57;;;29.70;58.30;;;;;;5055508;28;20025;-74
2021/08/16 11:39:10;;;;;;;11.00;5.00;;;29.70;56.80;;;;;;5055588;28;20531;-75
2021/08/16 11:41:36;;;;;;;8.00;4.38;;;29.60;56.50;;;;;;5055435;28;20495;-76
2021/08/16 11:44:12;;;;;;;9.30;5.05;;;29.60;56.30;;;;;;5055350;28;20147;-75
2021/08/16 11:46:38;;;;;;;7.65;4.78;;;29.50;56.80;;;;;;5055363;28;20025;-76
2021/08/16 11:49:09;;;;;;;11.00;5.35;;;29.30;56.00;;;;;;5053985;28;20079;-74
2021/08/16 11:51:36;;;;;;;11.10;5.13;;;29.20;57.10;;;;;;5055305;28;20027;-74
2021/08/16 11:54:02;;;;;;;6.35;4.95;;;29.20;56.70;;;;;;5053916;28;20048;-74
2021/08/16 11:56:28;;;;;;;12.05;5.00;;;29.00;56.40;;;;;;5094906;28;20119;-75
2021/08/16 11:58:55;;;;;;;6.93;5.10;;;28.90;56.70;;;;;;5094668;28;20086;-76
2021/08/16 12:01:21;;;;;;;9.77;5.25;;;28.80;57.00;;;;;;5095419;28;20056;-77
2021/08/16 12:03:47;;;;;;;12.38;6.32;;;28.70;56.60;;;;;;5095230;28;20023;-75
2021/08/16 12:06:16;;;;;;;7.57;5.13;;;28.70;56.90;;;;;;5077250;28;20032;-76
2021/08/16 12:08:42;;;;;;;5.75;4.00;;;28.60;57.80;;;;;;5077174;28;20020;-76
2021/08/16 12:11:16;;;;;;;7.38;3.88;;;28.60;59.10;;;;;;5077071;28;20035;-76
2021/08/16 12:13:42;;;;;;;13.60;4.78;;;28.50;59.40;;;;;;5095361;28;20043;-77
2021/08/16 12:16:14;;;;;;;12.90;5.22;;;28.50;59.00;;;;;;5076820;28;20099;-75
2021/08/16 12:18:40;;;;;;;14.60;5.13;;;28.50;58.50;;;;;;5095109;28;20020;-76
2021/08/16 12:21:06;;;;;;;13.45;5.72;;;28.50;59.40;;;;;;5095018;28;20435;-75
2021/08/16 12:23:34;;;;;;;10.45;5.03;;;28.40;58.70;;;;;;5094879;28;20362;-75
2021/08/16 12:26:03;;;;;;;13.73;5.00;;;28.50;59.80;;;;;;5094927;28;20568;-76
2021/08/16 12:28:55;;;;;;;11.80;5.28;;;28.50;60.70;;;;;;5094904;28;20073;-75
2021/08/16 12:31:27;;;;;;;11.60;4.43;;;28.40;59.40;;;;;;5091800;28;20401;-75
2021/08/16 12:34:13;;;;;;;10.95;4.45;;;28.40;60.70;;;;;;5094744;28;20095;-74
2021/08/16 12:36:40;;;;;;;13.77;5.18;;;28.40;59.20;;;;;;5094841;28;20016;-76
2021/08/16 12:39:13;;;;;;;9.65;4.55;;;28.40;59.10;;;;;;5094713;28;20483;-76
2021/08/16 12:41:40;;;;;;;11.88;4.43;;;28.40;59.80;;;;;;5094599;28;20036;-73